Kimballton, Virginia
Current Conditions -  °F | °C
As of 6:55 AM on Thursday 27 Nov 2014 (Local Time) from KPSK Reporting Station
Haze Haze  
Wind Chill: 35°   Ceiling: 300
Heat Index: 35°   Visibility: 1.2mi
Dew Point: 35°   Wind: 0mph
Humidity: 100%   Direction: NA
Pressure: 29.99"   Gusts: NA
Location:  37.3528°N, 80.6692°W
Report Text: KPSK 271155Z AUTO 00000KT 1 1/4SM BR OVC003 02/02 A2999 RMK AO2 70032 T00150015 10020 20012
Loading
Personal Weather Stations






























Interactive Weather Map New forecast layout! Learn more

10-Day Weather Forecast

Advertisements
Track Severe Weather on mobile